Time;durP1;ratioP1;P1;durP2;ratioP2;P2;SDS_P1;SDS_P2;PMS_P1;PMS_P2;Temp;Humidity;BMP_temperature;BMP_pressure;BME280_temperature;BME280_humidity;BME280_pressure;Samples;Min_cycle;Max_cycle;Signal;HPM_P1;HPM_P2
2023/03/30 00:01:16;;;;;;;11.87;4.40;;;;;;;;;;5073140;28;20644;-69
2023/03/30 00:03:42;;;;;;;7.67;3.60;;;;;;;;;;5054876;28;20695;-70
2023/03/30 00:06:09;;;;;;;9.73;4.57;;;;;;;;;;5054714;28;20186;-70
2023/03/30 00:08:35;;;;;;;8.77;4.50;;;;;;;;;;5054861;28;20190;-70
2023/03/30 00:11:02;;;;;;;10.63;4.83;;;;;;;;;;5054787;28;20216;-70
2023/03/30 00:13:29;;;;;;;10.60;4.40;;;;;;;;;;5072738;28;20228;-70
2023/03/30 00:15:55;;;;;;;11.20;4.80;;;;;;;;;;5054740;28;20567;-70
2023/03/30 00:18:21;;;;;;;13.90;5.10;;;;;;;;;;5054663;28;20178;-70
2023/03/30 00:20:51;;;;;;;10.23;4.63;;;;;;;;;;5072529;28;20647;-70
2023/03/30 00:23:17;;;;;;;9.00;4.97;;;;;;;;;;5054661;28;20259;-70
2023/03/30 00:25:43;;;;;;;11.23;4.73;;;;;;;;;;5073084;28;20554;-69
2023/03/30 00:28:09;;;;;;;9.47;4.57;;;;;;;;;;5054630;28;20178;-70
2023/03/30 00:30:36;;;;;;;12.23;4.90;;;;;;;;;;5054623;28;20206;-70
2023/03/30 00:33:02;;;;;;;10.30;4.73;;;;;;;;;;5072651;28;20256;-70
2023/03/30 00:35:29;;;;;;;12.80;4.43;;;;;;;;;;5072787;28;20173;-70
2023/03/30 00:37:55;;;;;;;7.90;4.40;;;;;;;;;;5072723;28;20261;-70
2023/03/30 00:40:22;;;;;;;8.20;4.20;;;;;;;;;;5054587;28;20208;-69
2023/03/30 00:42:48;;;;;;;10.47;4.13;;;;;;;;;;5055883;28;20191;-70
2023/03/30 00:45:19;;;;;;;8.90;3.90;;;;;;;;;;5058240;28;20252;-70
2023/03/30 00:47:49;;;;;;;12.73;4.53;;;;;;;;;;5058319;28;20578;-70
2023/03/30 00:50:15;;;;;;;10.43;3.70;;;;;;;;;;5075937;28;20233;-70
2023/03/30 00:52:42;;;;;;;10.53;3.47;;;;;;;;;;5058316;28;20185;-70
2023/03/30 00:55:09;;;;;;;12.30;4.57;;;;;;;;;;5058066;28;20204;-70
2023/03/30 00:57:36;;;;;;;10.00;3.90;;;;;;;;;;5058252;28;20281;-70
2023/03/30 01:00:05;;;;;;;6.97;3.50;;;;;;;;;;5076214;28;20182;-70
2023/03/30 01:02:34;;;;;;;8.60;4.10;;;;;;;;;;5076033;28;20178;-70
2023/03/30 01:05:00;;;;;;;11.17;4.63;;;;;;;;;;5058081;28;20214;-70
2023/03/30 01:07:26;;;;;;;8.67;4.60;;;;;;;;;;5075808;28;20184;-70
2023/03/30 01:09:53;;;;;;;8.73;4.03;;;;;;;;;;5057522;28;20304;-70
2023/03/30 01:12:19;;;;;;;7.70;4.17;;;;;;;;;;5057632;28;20182;-70
2023/03/30 01:14:47;;;;;;;10.27;3.97;;;;;;;;;;5075451;28;20201;-70
2023/03/30 01:17:16;;;;;;;9.13;3.57;;;;;;;;;;5057585;28;20182;-70
2023/03/30 01:20:07;;;;;;;6.03;3.60;;;;;;;;;;5075268;28;20636;-70
2023/03/30 01:22:46;;;;;;;10.17;3.90;;;;;;;;;;5057368;28;20178;-70
2023/03/30 01:25:13;;;;;;;10.57;3.60;;;;;;;;;;5057369;28;20197;-70
2023/03/30 01:27:58;;;;;;;9.07;3.30;;;;;;;;;;5057336;28;20178;-70
2023/03/30 01:30:40;;;;;;;7.20;3.30;;;;;;;;;;5075128;28;20201;-70
2023/03/30 01:33:24;;;;;;;7.93;3.23;;;;;;;;;;5075176;28;20181;-69
2023/03/30 01:36:09;;;;;;;7.20;3.70;;;;;;;;;;5075345;28;20169;-69
2023/03/30 01:38:35;;;;;;;9.50;3.70;;;;;;;;;;5075089;28;20184;-69
2023/03/30 01:41:28;;;;;;;5.63;3.03;;;;;;;;;;5057064;28;20178;-70
2023/03/30 01:44:06;;;;;;;8.47;3.37;;;;;;;;;;5057243;28;20213;-70
2023/03/30 01:46:44;;;;;;;8.87;3.30;;;;;;;;;;5075172;28;20213;-70
2023/03/30 01:49:15;;;;;;;13.13;3.80;;;;;;;;;;5074763;28;20174;-70
2023/03/30 01:51:55;;;;;;;6.80;3.20;;;;;;;;;;5075082;28;20201;-70
2023/03/30 01:54:29;;;;;;;6.13;3.53;;;;;;;;;;5074822;28;20229;-70
2023/03/30 01:56:58;;;;;;;7.80;3.27;;;;;;;;;;5056783;28;20181;-69
2023/03/30 01:59:28;;;;;;;6.60;2.80;;;;;;;;;;5056985;28;20209;-70
2023/03/30 02:01:59;;;;;;;7.00;3.20;;;;;;;;;;5074611;28;20218;-70
2023/03/30 02:04:25;;;;;;;7.33;3.23;;;;;;;;;;5074693;28;20201;-70
2023/03/30 02:06:55;;;;;;;9.93;3.50;;;;;;;;;;5074451;28;20174;-70
2023/03/30 02:09:22;;;;;;;6.90;3.60;;;;;;;;;;5074344;28;20201;-70
2023/03/30 02:11:49;;;;;;;8.03;3.27;;;;;;;;;;5074677;28;20176;-71
2023/03/30 02:14:16;;;;;;;14.60;3.43;;;;;;;;;;5074251;28;20686;-70
2023/03/30 02:17:05;;;;;;;12.80;3.73;;;;;;;;;;5074490;28;20178;-70
2023/03/30 02:19:32;;;;;;;12.03;3.43;;;;;;;;;;5063984;28;20244;-70
2023/03/30 02:22:00;;;;;;;5.83;2.90;;;;;;;;;;5056249;28;20186;-70
2023/03/30 02:24:27;;;;;;;7.33;3.27;;;;;;;;;;5056188;28;20206;-70
2023/03/30 02:26:53;;;;;;;7.00;3.37;;;;;;;;;;5074063;28;20209;-70
2023/03/30 02:29:21;;;;;;;5.83;3.13;;;;;;;;;;5074105;28;20193;-70
2023/03/30 02:31:49;;;;;;;7.30;3.20;;;;;;;;;;5056011;28;20178;-70
2023/03/30 02:34:33;;;;;;;8.17;2.93;;;;;;;;;;5073727;28;20218;-70
2023/03/30 02:37:09;;;;;;;6.10;2.97;;;;;;;;;;5072224;23;20723;-66
2023/03/30 02:39:43;;;;;;;6.67;3.23;;;;;;;;;;5073825;28;20173;-66
2023/03/30 02:42:09;;;;;;;6.93;2.77;;;;;;;;;;5074131;28;20527;-66
2023/03/30 02:44:55;;;;;;;7.93;3.17;;;;;;;;;;5055834;28;20184;-66
2023/03/30 02:47:45;;;;;;;9.80;2.93;;;;;;;;;;5055789;28;20292;-66
2023/03/30 02:50:17;;;;;;;7.97;3.17;;;;;;;;;;5063085;28;20264;-66
2023/03/30 02:53:00;;;;;;;11.27;3.40;;;;;;;;;;5074133;28;20186;-66
2023/03/30 02:55:33;;;;;;;7.17;3.00;;;;;;;;;;5055634;28;20714;-66
2023/03/30 02:58:01;;;;;;;5.03;2.53;;;;;;;;;;5073710;28;20197;-66
2023/03/30 03:00:31;;;;;;;7.43;2.70;;;;;;;;;;5073508;28;20574;-66
2023/03/30 03:02:59;;;;;;;6.87;3.03;;;;;;;;;;5073826;28;20209;-66
2023/03/30 03:05:26;;;;;;;7.60;3.23;;;;;;;;;;5054919;28;20173;-65
2023/03/30 03:07:52;;;;;;;8.30;3.00;;;;;;;;;;5055384;28;20206;-66
2023/03/30 03:10:18;;;;;;;10.70;3.10;;;;;;;;;;5073394;28;20194;-66
2023/03/30 03:12:45;;;;;;;6.93;3.27;;;;;;;;;;5073505;28;20170;-67
2023/03/30 03:15:12;;;;;;;4.47;2.90;;;;;;;;;;5055362;28;20192;-64
2023/03/30 03:17:38;;;;;;;11.77;3.40;;;;;;;;;;5073396;28;20190;-64
2023/03/30 03:20:06;;;;;;;6.30;2.87;;;;;;;;;;5073361;28;20174;-64
2023/03/30 03:22:32;;;;;;;5.97;2.87;;;;;;;;;;5073431;28;20227;-65
2023/03/30 03:25:01;;;;;;;8.37;2.60;;;;;;;;;;5055336;28;20182;-66
2023/03/30 03:27:27;;;;;;;7.03;2.90;;;;;;;;;;5073335;28;20194;-66
2023/03/30 03:29:53;;;;;;;6.23;2.93;;;;;;;;;;5073790;28;20663;-66
2023/03/30 03:32:19;;;;;;;7.00;3.00;;;;;;;;;;5073223;28;20181;-66
2023/03/30 03:34:45;;;;;;;7.50;3.20;;;;;;;;;;5073235;28;20591;-66
2023/03/30 03:37:11;;;;;;;12.47;3.00;;;;;;;;;;5073001;28;20292;-66
2023/03/30 03:39:37;;;;;;;5.80;3.07;;;;;;;;;;5073417;28;20185;-68
2023/03/30 03:42:04;;;;;;;5.13;2.70;;;;;;;;;;5055221;28;20182;-70
2023/03/30 03:44:30;;;;;;;4.27;2.60;;;;;;;;;;5055342;28;20185;-66
2023/03/30 03:46:56;;;;;;;6.50;2.50;;;;;;;;;;5054939;28;20246;-66
2023/03/30 03:49:21;;;;;;;6.00;2.70;;;;;;;;;;5073357;28;20287;-66
2023/03/30 03:51:47;;;;;;;4.43;2.50;;;;;;;;;;5072995;28;20177;-65
2023/03/30 03:54:13;;;;;;;6.50;2.80;;;;;;;;;;5054881;28;20178;-66
2023/03/30 03:56:39;;;;;;;10.97;2.80;;;;;;;;;;5072958;28;20186;-66
2023/03/30 03:59:05;;;;;;;8.70;2.70;;;;;;;;;;5072977;28;20174;-66
2023/03/30 04:01:31;;;;;;;9.87;2.80;;;;;;;;;;5072790;28;20178;-66
2023/03/30 04:03:57;;;;;;;9.83;2.90;;;;;;;;;;5073069;28;20178;-66
2023/03/30 04:06:23;;;;;;;7.10;2.50;;;;;;;;;;5054837;28;20205;-66
2023/03/30 04:08:49;;;;;;;6.20;2.60;;;;;;;;;;5072957;28;20171;-66
2023/03/30 04:11:16;;;;;;;5.70;2.60;;;;;;;;;;5072792;28;20209;-65
2023/03/30 04:13:42;;;;;;;5.80;2.60;;;;;;;;;;5073131;28;20287;-65
2023/03/30 04:16:09;;;;;;;4.63;2.43;;;;;;;;;;5054745;28;20628;-65
2023/03/30 04:18:35;;;;;;;3.83;2.30;;;;;;;;;;5057236;28;20236;-66
2023/03/30 04:21:03;;;;;;;5.17;2.60;;;;;;;;;;5076428;28;20208;-64
2023/03/30 04:23:30;;;;;;;5.47;2.20;;;;;;;;;;5058436;28;20188;-66
2023/03/30 04:26:03;;;;;;;6.70;2.40;;;;;;;;;;5076898;28;20178;-66
2023/03/30 04:28:30;;;;;;;5.70;2.23;;;;;;;;;;5058755;28;20229;-66
2023/03/30 04:30:58;;;;;;;6.73;2.43;;;;;;;;;;5058114;28;20205;-66
2023/03/30 04:33:24;;;;;;;4.30;2.30;;;;;;;;;;5058212;28;20182;-66
2023/03/30 04:35:50;;;;;;;3.83;2.30;;;;;;;;;;5076140;28;20176;-66
2023/03/30 04:38:21;;;;;;;4.53;2.33;;;;;;;;;;5076385;28;20205;-66
2023/03/30 04:40:47;;;;;;;5.10;2.53;;;;;;;;;;5076285;28;20207;-66
2023/03/30 04:43:13;;;;;;;8.23;2.80;;;;;;;;;;5076087;28;20213;-66
2023/03/30 04:45:39;;;;;;;6.67;2.57;;;;;;;;;;5075859;28;20178;-66
2023/03/30 04:48:06;;;;;;;7.03;2.70;;;;;;;;;;5075905;28;20204;-66
2023/03/30 04:50:31;;;;;;;4.50;2.53;;;;;;;;;;5057652;28;20297;-66
2023/03/30 04:52:57;;;;;;;4.27;2.40;;;;;;;;;;5075673;28;20266;-66
2023/03/30 04:55:23;;;;;;;10.00;2.50;;;;;;;;;;5057749;28;20177;-65
2023/03/30 04:57:50;;;;;;;5.53;2.87;;;;;;;;;;5075606;28;20190;-66
2023/03/30 05:00:16;;;;;;;10.00;2.83;;;;;;;;;;5075921;28;20174;-65
2023/03/30 05:02:42;;;;;;;8.20;2.67;;;;;;;;;;5075631;28;20178;-66
2023/03/30 05:05:08;;;;;;;10.37;3.20;;;;;;;;;;5075631;28;20273;-66
2023/03/30 05:07:34;;;;;;;5.13;2.67;;;;;;;;;;5057405;28;20320;-66
2023/03/30 05:10:00;;;;;;;4.70;2.53;;;;;;;;;;5075184;28;20280;-66
2023/03/30 05:12:26;;;;;;;11.10;2.57;;;;;;;;;;5075237;28;20552;-66
2023/03/30 05:14:52;;;;;;;6.00;2.70;;;;;;;;;;5075587;28;20642;-66
2023/03/30 05:17:17;;;;;;;6.50;2.90;;;;;;;;;;5077302;28;20790;-66
2023/03/30 05:19:45;;;;;;;10.67;2.70;;;;;;;;;;5060265;28;20713;-65
2023/03/30 05:22:11;;;;;;;4.33;2.40;;;;;;;;;;5078415;28;20189;-66
2023/03/30 05:24:37;;;;;;;7.27;2.60;;;;;;;;;;5059852;28;20181;-66
2023/03/30 05:27:04;;;;;;;5.90;2.80;;;;;;;;;;5075102;28;20198;-66
2023/03/30 05:29:30;;;;;;;9.03;2.83;;;;;;;;;;5074983;28;20644;-66
2023/03/30 05:31:56;;;;;;;8.80;2.50;;;;;;;;;;5075148;28;20248;-66
2023/03/30 05:34:22;;;;;;;8.70;3.07;;;;;;;;;;5075065;28;20209;-64
2023/03/30 05:36:48;;;;;;;9.10;2.97;;;;;;;;;;5074927;28;20213;-66
2023/03/30 05:39:14;;;;;;;6.17;2.70;;;;;;;;;;5075455;28;20174;-66
2023/03/30 05:41:40;;;;;;;4.67;2.57;;;;;;;;;;5075561;28;20542;-66
2023/03/30 05:44:06;;;;;;;6.23;3.00;;;;;;;;;;5074947;28;20606;-66
2023/03/30 05:46:32;;;;;;;6.80;3.17;;;;;;;;;;5074710;28;20251;-66
2023/03/30 05:48:58;;;;;;;5.40;2.83;;;;;;;;;;5074993;28;20257;-66
2023/03/30 05:51:25;;;;;;;5.37;2.60;;;;;;;;;;5074776;28;20210;-65
2023/03/30 05:53:51;;;;;;;9.90;3.10;;;;;;;;;;5075038;28;20270;-66
2023/03/30 05:56:17;;;;;;;6.03;3.27;;;;;;;;;;5074478;28;20651;-66
2023/03/30 05:58:43;;;;;;;6.07;2.87;;;;;;;;;;5074575;28;20223;-65
2023/03/30 06:01:10;;;;;;;6.93;3.47;;;;;;;;;;5074435;28;20189;-66
2023/03/30 06:03:37;;;;;;;4.07;2.60;;;;;;;;;;5074488;28;20268;-66
2023/03/30 06:06:04;;;;;;;7.80;2.70;;;;;;;;;;5056582;28;20676;-66
2023/03/30 06:08:30;;;;;;;5.37;2.70;;;;;;;;;;5074258;28;20216;-66
2023/03/30 06:10:56;;;;;;;8.23;2.40;;;;;;;;;;5074617;28;20232;-66
2023/03/30 06:13:22;;;;;;;6.77;2.60;;;;;;;;;;5074283;28;20178;-66
2023/03/30 06:15:48;;;;;;;6.90;2.60;;;;;;;;;;5056483;28;20177;-65
2023/03/30 06:18:14;;;;;;;4.90;2.50;;;;;;;;;;5074301;28;20194;-66
2023/03/30 06:20:40;;;;;;;5.03;2.70;;;;;;;;;;5074616;28;20189;-66
2023/03/30 06:23:06;;;;;;;6.50;2.67;;;;;;;;;;5075020;28;20180;-66
2023/03/30 06:25:32;;;;;;;6.13;2.37;;;;;;;;;;5056276;28;20178;-66
2023/03/30 06:27:59;;;;;;;6.90;2.80;;;;;;;;;;5073989;28;20246;-66
2023/03/30 06:30:25;;;;;;;7.67;2.53;;;;;;;;;;5073855;28;20205;-65
2023/03/30 06:32:51;;;;;;;4.33;2.53;;;;;;;;;;5074387;28;20188;-66
2023/03/30 06:35:17;;;;;;;5.60;2.60;;;;;;;;;;5074861;28;20550;-66
2023/03/30 06:37:43;;;;;;;8.53;2.57;;;;;;;;;;5056254;28;20583;-66
2023/03/30 06:40:12;;;;;;;8.97;3.37;;;;;;;;;;5054965;28;20265;-66
2023/03/30 06:42:38;;;;;;;8.50;4.87;;;;;;;;;;5073718;28;20176;-66
2023/03/30 06:45:04;;;;;;;13.37;9.70;;;;;;;;;;5073847;28;20592;-65
2023/03/30 06:47:30;;;;;;;20.97;14.60;;;;;;;;;;5073533;28;20219;-66
2023/03/30 06:49:56;;;;;;;16.23;11.37;;;;;;;;;;5055501;28;20206;-66
2023/03/30 06:52:22;;;;;;;14.60;10.37;;;;;;;;;;5055575;28;20174;-66
2023/03/30 06:54:48;;;;;;;7.77;4.40;;;;;;;;;;5073750;28;20205;-66
2023/03/30 06:57:14;;;;;;;7.53;2.37;;;;;;;;;;5073372;28;20190;-66
2023/03/30 06:59:40;;;;;;;7.63;3.87;;;;;;;;;;5073661;28;20181;-66
2023/03/30 07:02:06;;;;;;;7.00;4.17;;;;;;;;;;5073276;28;20234;-66
2023/03/30 07:04:32;;;;;;;6.17;2.70;;;;;;;;;;5073670;28;20548;-66
2023/03/30 07:06:58;;;;;;;10.47;3.93;;;;;;;;;;5073213;28;20197;-66
2023/03/30 07:09:25;;;;;;;2.40;1.70;;;;;;;;;;5055172;28;20768;-66
2023/03/30 07:11:51;;;;;;;3.73;1.93;;;;;;;;;;5055324;28;20182;-66
2023/03/30 07:14:17;;;;;;;4.77;2.30;;;;;;;;;;5073251;28;20174;-65
2023/03/30 07:16:43;;;;;;;4.33;2.60;;;;;;;;;;5073184;28;20252;-65
2023/03/30 07:19:09;;;;;;;7.73;3.70;;;;;;;;;;5073432;28;20181;-65
2023/03/30 07:21:35;;;;;;;4.30;2.23;;;;;;;;;;5055064;28;20213;-65
2023/03/30 07:24:02;;;;;;;6.03;2.60;;;;;;;;;;5073095;28;20220;-66
2023/03/30 07:26:28;;;;;;;8.57;2.60;;;;;;;;;;5073467;28;20170;-66
2023/03/30 07:28:58;;;;;;;4.83;2.50;;;;;;;;;;5073120;28;20174;-66
2023/03/30 07:31:25;;;;;;;6.50;2.20;;;;;;;;;;5072991;28;20205;-66
2023/03/30 07:33:51;;;;;;;5.07;2.37;;;;;;;;;;5056002;28;20534;-66
2023/03/30 07:36:17;;;;;;;5.20;2.50;;;;;;;;;;5073221;28;20286;-65
2023/03/30 07:38:43;;;;;;;6.27;2.57;;;;;;;;;;5055384;28;20190;-66
2023/03/30 07:41:11;;;;;;;6.43;3.00;;;;;;;;;;5073128;28;20296;-65
2023/03/30 07:43:39;;;;;;;4.97;2.30;;;;;;;;;;5073214;28;20553;-65
2023/03/30 07:46:06;;;;;;;8.00;2.20;;;;;;;;;;5055230;28;20192;-65
2023/03/30 07:48:31;;;;;;;8.27;2.33;;;;;;;;;;5054805;28;20201;-65
2023/03/30 07:51:08;;;;;;;6.10;2.47;;;;;;;;;;5055002;28;20208;-66
2023/03/30 07:53:34;;;;;;;4.67;2.50;;;;;;;;;;5077435;28;20178;-66
2023/03/30 07:56:01;;;;;;;4.23;1.97;;;;;;;;;;5059113;28;20229;-66
2023/03/30 07:58:27;;;;;;;5.30;2.27;;;;;;;;;;5076788;28;20204;-66
2023/03/30 08:00:54;;;;;;;5.90;2.00;;;;;;;;;;5058758;28;20264;-66
2023/03/30 08:03:22;;;;;;;5.27;2.60;;;;;;;;;;5077190;28;20182;-67
2023/03/30 08:05:53;;;;;;;6.53;2.07;;;;;;;;;;5058728;28;20178;-64
2023/03/30 08:08:19;;;;;;;4.13;2.50;;;;;;;;;;5076713;28;20197;-65
2023/03/30 08:10:45;;;;;;;3.73;2.33;;;;;;;;;;5058445;28;20569;-64
2023/03/30 08:13:11;;;;;;;5.23;2.70;;;;;;;;;;5076453;28;20178;-65
2023/03/30 08:15:37;;;;;;;3.83;2.47;;;;;;;;;;5058550;28;20174;-65
2023/03/30 08:18:06;;;;;;;4.87;2.20;;;;;;;;;;5058456;28;20206;-65
2023/03/30 08:20:33;;;;;;;4.60;2.63;;;;;;;;;;5058407;28;20192;-65
2023/03/30 08:22:59;;;;;;;6.80;2.30;;;;;;;;;;5076348;28;20185;-65
2023/03/30 08:25:26;;;;;;;3.80;1.90;;;;;;;;;;5076101;28;20185;-65
2023/03/30 08:27:52;;;;;;;5.33;2.40;;;;;;;;;;5076021;28;20277;-65
2023/03/30 08:30:18;;;;;;;6.67;2.77;;;;;;;;;;5076116;28;20283;-66
2023/03/30 08:32:44;;;;;;;8.13;2.93;;;;;;;;;;5076207;28;20180;-65
2023/03/30 08:35:10;;;;;;;9.10;3.27;;;;;;;;;;5058117;28;20269;-67
2023/03/30 08:37:36;;;;;;;6.00;2.77;;;;;;;;;;5075925;28;20253;-65
2023/03/30 08:40:05;;;;;;;8.10;2.57;;;;;;;;;;5089658;22;20286;-68
2023/03/30 08:42:56;;;;;;;6.53;2.33;;;;;;;;;;5076201;28;20162;-69
2023/03/30 08:45:22;;;;;;;9.87;2.70;;;;;;;;;;5076611;28;20163;-70
2023/03/30 08:47:50;;;;;;;9.07;2.57;;;;;;;;;;5076182;28;20181;-68
2023/03/30 08:50:20;;;;;;;4.53;2.13;;;;;;;;;;5075925;28;20209;-68
2023/03/30 08:52:46;;;;;;;7.70;2.67;;;;;;;;;;5076321;28;20220;-68
2023/03/30 08:55:21;;;;;;;7.73;2.53;;;;;;;;;;5076139;28;20577;-68
2023/03/30 08:57:51;;;;;;;8.80;3.23;;;;;;;;;;5075902;28;20158;-68
2023/03/30 09:00:37;;;;;;;8.57;3.20;;;;;;;;;;5058153;28;20296;-68
2023/03/30 09:03:11;;;;;;;5.67;2.43;;;;;;;;;;5061075;28;20201;-68
2023/03/30 09:05:42;;;;;;;10.60;2.70;;;;;;;;;;5075668;28;20249;-68
2023/03/30 09:08:21;;;;;;;8.00;2.60;;;;;;;;;;5075994;28;20174;-69
2023/03/30 09:10:51;;;;;;;9.57;3.00;;;;;;;;;;5057856;28;20572;-68
2023/03/30 09:13:20;;;;;;;8.37;2.67;;;;;;;;;;5057887;28;20224;-68
2023/03/30 09:15:55;;;;;;;7.13;2.10;;;;;;;;;;5058479;28;20210;-68
2023/03/30 09:18:21;;;;;;;5.00;2.40;;;;;;;;;;5075986;28;20184;-69
2023/03/30 09:20:48;;;;;;;5.20;2.23;;;;;;;;;;5075494;28;20193;-68
2023/03/30 09:23:16;;;;;;;6.70;2.53;;;;;;;;;;5075626;28;20264;-68
2023/03/30 09:25:46;;;;;;;9.77;2.90;;;;;;;;;;5057490;28;20636;-68
2023/03/30 09:28:23;;;;;;;6.93;2.70;;;;;;;;;;5057315;28;20224;-68
2023/03/30 09:30:54;;;;;;;8.00;2.73;;;;;;;;;;5057338;28;20217;-68
2023/03/30 09:33:29;;;;;;;11.17;2.90;;;;;;;;;;5057294;28;20193;-67
2023/03/30 09:36:06;;;;;;;6.50;2.47;;;;;;;;;;5075160;28;20687;-68
2023/03/30 09:38:32;;;;;;;7.13;2.37;;;;;;;;;;5075172;28;20185;-68
2023/03/30 09:41:06;;;;;;;8.67;2.10;;;;;;;;;;5074806;28;20237;-68
2023/03/30 09:43:45;;;;;;;7.07;2.43;;;;;;;;;;5057081;28;20185;-69
2023/03/30 09:46:12;;;;;;;10.80;3.07;;;;;;;;;;5075396;28;20245;-68
2023/03/30 09:48:50;;;;;;;7.90;2.77;;;;;;;;;;5074908;28;20236;-69
2023/03/30 09:51:21;;;;;;;7.77;2.27;;;;;;;;;;5074713;28;20587;-68
2023/03/30 09:53:48;;;;;;;9.20;2.70;;;;;;;;;;5056936;28;20189;-68
2023/03/30 09:56:20;;;;;;;7.43;2.63;;;;;;;;;;5057071;28;20182;-69
2023/03/30 09:58:46;;;;;;;6.60;2.63;;;;;;;;;;5074911;28;20636;-68
2023/03/30 10:01:12;;;;;;;15.70;2.83;;;;;;;;;;5075222;28;20204;-69
2023/03/30 10:03:39;;;;;;;9.80;2.77;;;;;;;;;;5057385;28;20178;-68
2023/03/30 10:06:23;;;;;;;11.17;3.23;;;;;;;;;;5074999;28;20230;-68
2023/03/30 10:08:50;;;;;;;10.07;2.93;;;;;;;;;;5074847;28;20745;-68
2023/03/30 10:11:20;;;;;;;9.23;2.63;;;;;;;;;;5074783;28;20213;-69
2023/03/30 10:13:48;;;;;;;11.40;2.67;;;;;;;;;;5074668;28;20230;-69
2023/03/30 10:16:27;;;;;;;11.60;2.90;;;;;;;;;;5074667;28;20265;-69
2023/03/30 10:18:56;;;;;;;9.87;3.10;;;;;;;;;;5056284;28;20217;-69
2023/03/30 10:21:26;;;;;;;10.90;4.07;;;;;;;;;;5074707;28;20197;-69
2023/03/30 10:24:03;;;;;;;17.47;4.07;;;;;;;;;;5074408;28;20178;-69
2023/03/30 10:26:30;;;;;;;11.43;4.03;;;;;;;;;;5074065;28;20166;-68
2023/03/30 10:29:06;;;;;;;8.83;3.03;;;;;;;;;;5074062;28;20173;-69
2023/03/30 10:31:34;;;;;;;6.87;2.67;;;;;;;;;;5073979;28;20292;-70
2023/03/30 10:34:01;;;;;;;9.80;2.80;;;;;;;;;;5074226;28;20177;-70
2023/03/30 10:36:29;;;;;;;8.37;3.30;;;;;;;;;;5073898;28;20174;-70
2023/03/30 10:38:57;;;;;;;8.97;2.67;;;;;;;;;;5073945;28;20174;-70
2023/03/30 10:41:23;;;;;;;11.23;3.57;;;;;;;;;;5055760;28;20217;-69
2023/03/30 10:43:50;;;;;;;12.80;5.73;;;;;;;;;;5073829;28;20261;-68
2023/03/30 10:46:17;;;;;;;10.80;3.50;;;;;;;;;;5074049;28;20182;-70
2023/03/30 10:48:52;;;;;;;10.87;3.83;;;;;;;;;;5055888;28;20215;-70
2023/03/30 10:51:25;;;;;;;9.63;3.47;;;;;;;;;;5055608;28;20209;-69
2023/03/30 10:53:57;;;;;;;8.27;5.47;;;;;;;;;;5055693;28;20627;-69
2023/03/30 10:56:30;;;;;;;18.00;3.43;;;;;;;;;;5055551;28;20554;-69
2023/03/30 10:59:12;;;;;;;9.40;2.80;;;;;;;;;;5073710;28;20158;-70
2023/03/30 11:01:41;;;;;;;12.10;3.03;;;;;;;;;;5073737;28;20225;-69
2023/03/30 11:04:11;;;;;;;11.87;3.40;;;;;;;;;;5073574;28;20181;-70
2023/03/30 11:06:40;;;;;;;10.47;3.60;;;;;;;;;;5073448;28;20205;-69
2023/03/30 11:09:09;;;;;;;15.67;3.70;;;;;;;;;;5073336;28;20261;-69
2023/03/30 11:11:40;;;;;;;10.77;3.47;;;;;;;;;;5073440;28;20206;-70
2023/03/30 11:14:15;;;;;;;6.63;3.23;;;;;;;;;;5055405;28;20338;-70
2023/03/30 11:16:51;;;;;;;9.97;3.40;;;;;;;;;;5073561;28;20189;-70
2023/03/30 11:19:23;;;;;;;10.73;3.73;;;;;;;;;;5073568;28;20193;-69
2023/03/30 11:22:06;;;;;;;26.53;18.83;;;;;;;;;;5055221;28;20174;-70
2023/03/30 11:24:34;;;;;;;17.93;7.27;;;;;;;;;;5074239;28;20205;-70
2023/03/30 11:27:04;;;;;;;30.53;18.20;;;;;;;;;;5072705;28;20251;-70
2023/03/30 11:29:37;;;;;;;12.77;3.77;;;;;;;;;;5055025;28;20166;-69
2023/03/30 11:32:06;;;;;;;14.73;3.53;;;;;;;;;;5055258;28;20181;-69
2023/03/30 11:34:37;;;;;;;11.10;3.27;;;;;;;;;;5073081;28;20180;-69
2023/03/30 11:37:12;;;;;;;9.00;3.57;;;;;;;;;;5073254;28;20166;-69
2023/03/30 11:39:40;;;;;;;7.30;2.70;;;;;;;;;;5055043;28;20292;-70
2023/03/30 11:42:14;;;;;;;10.07;3.17;;;;;;;;;;5055161;28;20174;-69
2023/03/30 11:44:41;;;;;;;11.47;3.87;;;;;;;;;;5055364;28;20172;-70
2023/03/30 11:47:23;;;;;;;13.93;4.00;;;;;;;;;;5055237;28;20182;-70
2023/03/30 11:50:00;;;;;;;14.10;3.80;;;;;;;;;;5054894;28;20300;-70
2023/03/30 11:52:32;;;;;;;12.07;4.97;;;;;;;;;;5073262;28;20168;-69
2023/03/30 11:55:04;;;;;;;15.37;4.67;;;;;;;;;;5073005;28;20178;-69
2023/03/30 11:57:30;;;;;;;10.80;3.87;;;;;;;;;;5072915;28;20173;-69
2023/03/30 12:00:08;;;;;;;9.17;3.50;;;;;;;;;;5072898;28;20220;-69
2023/03/30 12:02:34;;;;;;;9.57;3.97;;;;;;;;;;5055487;28;20268;-70
2023/03/30 12:05:03;;;;;;;9.53;3.40;;;;;;;;;;5072931;28;20683;-70
2023/03/30 12:07:35;;;;;;;13.50;4.83;;;;;;;;;;5072857;28;20231;-70
2023/03/30 12:10:06;;;;;;;9.77;3.17;;;;;;;;;;5054826;28;20210;-70
2023/03/30 12:12:32;;;;;;;12.33;3.17;;;;;;;;;;5072799;28;20616;-69
2023/03/30 12:14:58;;;;;;;11.27;3.50;;;;;;;;;;5054926;28;20205;-69
2023/03/30 12:17:43;;;;;;;12.80;3.03;;;;;;;;;;5073791;28;20185;-69
2023/03/30 12:20:09;;;;;;;9.53;3.00;;;;;;;;;;5055172;28;20204;-69
2023/03/30 12:22:35;;;;;;;9.97;2.70;;;;;;;;;;5073792;28;20533;-69
2023/03/30 12:25:04;;;;;;;11.17;2.77;;;;;;;;;;5074142;28;20204;-68
2023/03/30 12:27:33;;;;;;;12.40;3.30;;;;;;;;;;5055449;28;20644;-70
2023/03/30 12:30:11;;;;;;;7.80;3.20;;;;;;;;;;5055111;28;20608;-70
2023/03/30 12:32:37;;;;;;;9.57;2.67;;;;;;;;;;5074422;28;20169;-69
2023/03/30 12:35:23;;;;;;;9.33;3.17;;;;;;;;;;5073392;28;20182;-69
2023/03/30 12:37:51;;;;;;;7.20;2.83;;;;;;;;;;5055139;28;20542;-70
2023/03/30 12:40:21;;;;;;;8.53;2.70;;;;;;;;;;5076156;28;20221;-69
2023/03/30 12:42:54;;;;;;;11.73;3.27;;;;;;;;;;5058487;28;20667;-70
2023/03/30 12:45:20;;;;;;;7.07;2.67;;;;;;;;;;5076548;28;20169;-69
2023/03/30 12:47:46;;;;;;;36.50;14.67;;;;;;;;;;5076501;28;20186;-70
2023/03/30 12:50:13;;;;;;;6.50;3.10;;;;;;;;;;5076153;28;20266;-69
2023/03/30 12:52:47;;;;;;;7.60;2.53;;;;;;;;;;5076540;28;20178;-70
2023/03/30 12:55:23;;;;;;;4.90;1.93;;;;;;;;;;5057963;28;20655;-70
2023/03/30 12:58:07;;;;;;;5.20;2.33;;;;;;;;;;5058136;28;20188;-70
2023/03/30 13:00:39;;;;;;;8.10;2.53;;;;;;;;;;5057738;28;20254;-69
2023/03/30 13:03:28;;;;;;;8.10;1.80;;;;;;;;;;5075723;28;20174;-69
2023/03/30 13:05:56;;;;;;;5.70;2.40;;;;;;;;;;5076032;28;20258;-70
2023/03/30 13:08:32;;;;;;;6.17;2.03;;;;;;;;;;5057722;28;20571;-70
2023/03/30 13:11:13;;;;;;;10.97;2.63;;;;;;;;;;5075659;28;20202;-70
2023/03/30 13:13:56;;;;;;;30.43;21.83;;;;;;;;;;5075527;28;20184;-70
2023/03/30 13:16:40;;;;;;;7.10;3.47;;;;;;;;;;5075917;28;20209;-69
2023/03/30 13:19:13;;;;;;;6.97;3.47;;;;;;;;;;5075563;28;20727;-70
2023/03/30 13:21:46;;;;;;;5.97;2.37;;;;;;;;;;5057901;28;20643;-70
2023/03/30 13:24:24;;;;;;;8.60;3.73;;;;;;;;;;5057704;28;20185;-70
2023/03/30 13:26:50;;;;;;;10.47;6.10;;;;;;;;;;5075855;28;20215;-69
2023/03/30 13:29:17;;;;;;;20.27;12.40;;;;;;;;;;5057513;28;20644;-71
2023/03/30 13:31:49;;;;;;;8.37;3.00;;;;;;;;;;5075830;28;20284;-70
2023/03/30 13:34:42;;;;;;;10.13;5.10;;;;;;;;;;5075847;28;20751;-70
2023/03/30 13:37:17;;;;;;;10.50;4.03;;;;;;;;;;5075892;28;20567;-70
2023/03/30 13:39:45;;;;;;;8.23;3.23;;;;;;;;;;5075305;28;20280;-70
2023/03/30 13:42:23;;;;;;;13.40;5.20;;;;;;;;;;5075515;28;20169;-70
2023/03/30 13:44:55;;;;;;;12.63;4.63;;;;;;;;;;5057410;28;20177;-70
2023/03/30 13:47:24;;;;;;;9.30;2.70;;;;;;;;;;5075333;28;20249;-70
2023/03/30 13:50:02;;;;;;;14.67;8.77;;;;;;;;;;5075052;28;20205;-70
2023/03/30 13:52:38;;;;;;;8.30;2.83;;;;;;;;;;5057173;28;20177;-70
2023/03/30 13:55:09;;;;;;;8.27;3.30;;;;;;;;;;5075137;28;20211;-70
2023/03/30 13:57:38;;;;;;;11.37;4.13;;;;;;;;;;5074841;28;20173;-70
2023/03/30 14:00:27;;;;;;;10.73;2.57;;;;;;;;;;5074708;28;20229;-70
2023/03/30 14:02:53;;;;;;;11.03;2.57;;;;;;;;;;5056603;28;20224;-70
2023/03/30 14:05:20;;;;;;;9.43;4.07;;;;;;;;;;5074631;28;20210;-70
2023/03/30 14:07:46;;;;;;;10.37;3.23;;;;;;;;;;5056616;28;20554;-70
2023/03/30 14:10:13;;;;;;;10.30;3.53;;;;;;;;;;5074802;28;20232;-70
2023/03/30 14:12:40;;;;;;;10.83;2.97;;;;;;;;;;5056795;28;20238;-69
2023/03/30 14:15:16;;;;;;;11.20;3.30;;;;;;;;;;5056616;28;20674;-70
2023/03/30 14:17:46;;;;;;;10.40;3.77;;;;;;;;;;5056694;28;20181;-70
2023/03/30 14:20:20;;;;;;;7.07;2.87;;;;;;;;;;5056630;28;20578;-70
2023/03/30 14:22:49;;;;;;;7.37;2.90;;;;;;;;;;5074806;28;20166;-69
2023/03/30 14:25:27;;;;;;;13.57;8.33;;;;;;;;;;5074758;28;20178;-70
2023/03/30 14:27:53;;;;;;;13.53;3.60;;;;;;;;;;5074575;28;20193;-69
2023/03/30 14:30:19;;;;;;;9.50;3.67;;;;;;;;;;5056245;28;20206;-70
2023/03/30 14:32:45;;;;;;;10.37;4.00;;;;;;;;;;5074403;28;20184;-69
2023/03/30 14:35:15;;;;;;;11.97;3.33;;;;;;;;;;5074210;28;20178;-69
2023/03/30 14:37:41;;;;;;;8.60;3.17;;;;;;;;;;5057376;28;20162;-70
2023/03/30 14:40:14;;;;;;;8.77;2.63;;;;;;;;;;5056027;28;20663;-70
2023/03/30 14:42:40;;;;;;;13.37;3.20;;;;;;;;;;5056296;28;20235;-69
2023/03/30 14:45:07;;;;;;;11.33;3.03;;;;;;;;;;5095768;22;20225;-66
2023/03/30 14:47:35;;;;;;;9.63;3.27;;;;;;;;;;5056130;28;20556;-65
2023/03/30 14:50:03;;;;;;;9.53;3.67;;;;;;;;;;5055660;28;20665;-66
2023/03/30 14:52:37;;;;;;;7.90;3.20;;;;;;;;;;5055757;28;20182;-66